.
WxDataArchive / Data Records for 2006-07-25
2006-07-24 July 2006 2006-07-26

Data Records for Tuesday, 25 July 2006

Time	Temp	Chill	HIndex	Humid	Dewpt	 Wind 	HiWind	WindDir	Rain 	Barom 
-----	----	-----	------	-----	-----	------	------	-------	-----	----- 
00:00	75.4	75.4	77.1	69	64.5	0	3	248	0.00	29.898 
00:05	75.4	75.4	77.1	69	64.5	0	2	248	0.00	29.898 
00:10	75.3	75.3	77.0	69	64.4	0	1	248	0.00	29.898 
00:15	75.1	75.1	76.8	70	64.6	0	2	248	0.00	29.895 
00:20	74.9	74.9	74.9	70	64.4	0	3	248	0.00	29.895 
00:25	74.7	74.7	74.7	70	64.2	0	2	248	0.00	29.895 
00:30	74.7	74.7	74.7	70	64.2	1	2	248	0.00	29.900 
00:35	74.7	74.7	74.7	70	64.2	1	3	248	0.00	29.900 
00:40	74.6	74.6	74.6	70	64.2	1	3	248	0.00	29.900 
00:45	74.6	74.6	74.6	70	64.2	0	2	248	0.00	29.907 
00:50	74.7	74.7	74.7	71	64.7	0	3	248	0.00	29.907 
00:55	74.7	74.7	74.7	70	64.2	0	2	248	0.00	29.907 
01:00	74.7	74.7	74.7	70	64.2	0	1	225	0.00	29.908 
01:05	74.7	74.7	74.7	70	64.2	0	3	225	0.00	29.908 
01:10	74.9	74.9	74.9	70	64.4	1	3	248	0.00	29.908 
01:15	74.9	74.9	74.9	70	64.4	1	4	248	0.00	29.913 
01:20	75.1	75.1	76.8	70	64.6	1	2	248	0.00	29.913 
01:25	75.3	75.3	77.0	69	64.4	1	2	248	0.00	29.913 
01:30	75.4	75.4	77.1	69	64.5	1	3	248	0.00	29.911 
01:35	75.4	75.4	77.1	69	64.5	1	3	248	0.00	29.911 
01:40	75.3	75.3	77.0	69	64.4	1	3	248	0.00	29.911 
01:45	75.3	75.3	77.0	69	64.4	0	3	248	0.00	29.910 
01:50	75.1	75.1	76.8	70	64.6	0	3	248	0.00	29.910 
01:55	74.9	74.9	74.9	69	64.0	1	4	248	0.00	29.910 
02:00	74.7	74.7	74.7	70	64.2	1	3	248	0.00	29.903 
02:05	74.7	74.7	74.7	70	64.2	1	4	248	0.00	29.903 
02:10	74.7	74.7	74.7	70	64.2	1	3	248	0.00	29.903 
02:15	74.7	74.7	74.7	70	64.2	1	3	248	0.00	29.898 
02:20	74.7	74.7	74.7	71	64.7	1	3	248	0.00	29.898 
02:25	74.4	74.4	74.4	71	64.4	1	3	248	0.00	29.898 
02:30	74.0	74.0	74.0	72	64.4	0	2	248	0.00	29.898 
02:35	73.9	73.9	73.9	73	64.7	0	1	248	0.00	29.898 
02:40	73.5	73.5	73.5	73	64.3	1	3	248	0.00	29.898 
02:45	73.2	73.2	73.2	73	64.0	1	3	248	0.00	29.893 
02:50	73.0	73.0	73.0	74	64.2	0	2	248	0.00	29.893 
02:55	72.8	72.8	72.8	74	64.0	0	2	248	0.00	29.893 
03:00	72.7	72.7	72.7	74	63.9	0	2	248	0.00	29.892 
03:05	72.5	72.5	72.5	75	64.1	1	2	248	0.00	29.892 
03:10	72.3	72.3	72.3	75	63.9	0	2	248	0.00	29.892 
03:15	72.3	72.3	72.3	75	63.9	1	3	248	0.00	29.890 
03:20	72.1	72.1	72.1	75	63.7	0	2	248	0.00	29.890 
03:25	72.0	72.0	72.0	76	64.0	1	3	248	0.00	29.890 
03:30	71.8	71.8	71.8	76	63.8	1	4	248	0.00	29.890 
03:35	71.8	71.8	71.8	76	63.8	0	1	225	0.00	29.890 
03:40	71.6	71.6	71.6	76	63.6	1	4	225	0.00	29.890 
03:45	71.6	71.6	71.6	76	63.6	0	2	248	0.00	29.890 
03:50	71.6	71.6	71.6	77	64.0	1	3	248	0.00	29.890 
03:55	71.5	71.5	71.5	77	63.9	0	2	248	0.00	29.890 
04:00	71.5	71.5	71.5	77	63.9	0	2	248	0.00	29.888 
04:05	71.3	71.3	71.3	77	63.7	0	2	248	0.00	29.888 
04:10	71.3	71.3	71.3	77	63.7	1	3	248	0.00	29.888 
04:15	71.3	71.3	71.3	78	64.1	0	3	248	0.00	29.889 
04:20	71.3	71.3	71.3	77	63.7	1	3	248	0.00	29.889 
04:25	71.3	71.3	71.3	78	64.1	1	3	248	0.00	29.889 
04:30	71.3	71.3	71.3	77	63.7	1	2	248	0.00	29.888 
04:35	71.3	71.3	71.3	77	63.7	1	3	248	0.00	29.888 
04:40	71.5	71.5	71.5	77	63.9	1	6	248	0.00	29.888 
04:45	71.5	71.5	71.5	77	63.9	1	3	225	0.00	29.887 
04:50	71.5	71.5	71.5	76	63.5	1	3	248	0.00	29.887 
04:55	71.5	71.5	71.5	76	63.5	2	4	248	0.00	29.887 
05:00	71.5	71.5	71.5	76	63.5	1	4	248	0.00	29.888 
05:05	71.5	71.5	71.5	76	63.5	2	4	248	0.00	29.888 
05:10	71.5	71.5	71.5	76	63.5	0	2	248	0.00	29.888 
05:15	71.3	71.3	71.3	76	63.3	1	3	248	0.00	29.896 
05:20	71.3	71.3	71.3	76	63.3	1	4	248	0.00	29.896 
05:25	71.1	71.1	71.1	76	63.1	1	3	248	0.00	29.896 
05:30	71.1	71.1	71.1	77	63.5	1	5	248	0.00	29.898 
05:35	70.9	70.9	70.9	76	62.9	1	2	248	0.00	29.898 
05:40	70.9	70.9	70.9	76	62.9	1	4	248	0.00	29.898 
05:45	71.1	71.1	71.1	76	63.1	1	4	248	0.00	29.899 
05:50	70.9	70.9	70.9	76	62.9	1	5	248	0.00	29.899 
05:55	70.9	70.9	70.9	76	62.9	1	3	248	0.00	29.899 
06:00	71.1	71.1	71.1	76	63.1	2	5	248	0.00	29.898 
06:05	71.1	71.1	71.1	76	63.1	1	4	248	0.00	29.898 
06:10	70.9	70.9	70.9	76	62.9	0	2	248	0.00	29.898 
06:15	70.9	70.9	70.9	76	62.9	1	3	248	0.00	29.904 
06:20	70.9	70.9	70.9	76	62.9	1	6	248	0.00	29.904 
06:25	70.9	70.9	70.9	76	62.9	1	4	248	0.00	29.904 
06:30	70.9	70.9	70.9	76	62.9	1	4	248	0.00	29.907 
06:35	70.9	70.9	70.9	76	62.9	1	2	270	0.00	29.907 
06:40	70.8	70.8	70.8	76	62.8	1	2	248	0.00	29.907 
06:45	70.6	70.6	70.6	77	63.0	0	2	248	0.00	29.913 
06:50	70.4	70.4	70.4	77	62.8	1	3	248	0.00	29.913 
06:55	70.4	70.4	70.4	77	62.8	1	3	248	0.00	29.913 
07:00	70.6	70.6	70.6	77	63.0	1	3	248	0.00	29.917 
07:05	70.4	70.4	70.4	77	62.8	0	2	248	0.00	29.917 
07:10	70.4	70.4	70.4	77	62.8	0	2	248	0.00	29.917 
07:15	70.4	70.4	70.4	77	62.8	1	3	248	0.00	29.918 
07:20	70.6	70.6	70.6	77	63.0	1	2	248	0.00	29.918 
07:25	70.9	70.9	70.9	77	63.3	1	4	248	0.00	29.918 
07:30	71.3	71.3	71.3	76	63.3	0	3	248	0.00	29.920 
07:35	71.5	71.5	71.5	76	63.5	1	2	248	0.00	29.920 
07:40	71.8	71.8	71.8	75	63.4	1	3	248	0.00	29.920 
07:45	72.1	72.1	72.1	74	63.3	1	3	248	0.00	29.923 
07:50	72.5	72.5	72.5	73	63.3	1	3	248	0.00	29.923 
07:55	73.0	73.0	73.0	73	63.8	2	3	248	0.00	29.923 
08:00	73.3	73.3	73.3	72	63.7	1	5	248	0.00	29.928 
08:05	73.7	73.7	73.7	71	63.7	1	3	248	0.00	29.928 
08:10	74.2	74.2	74.2	70	63.8	2	3	248	0.00	29.928 
08:15	74.4	74.4	74.4	69	63.5	2	5	248	0.00	29.926 
08:20	74.4	74.4	74.4	69	63.5	2	4	248	0.00	29.926 
08:25	74.2	74.2	74.2	70	63.8	2	5	248	0.00	29.926 
08:30	74.2	74.2	74.2	70	63.8	2	4	248	0.00	29.926 
08:35	74.2	74.2	74.2	69	63.4	1	4	248	0.00	29.926 
08:40	74.2	74.2	74.2	69	63.4	2	4	248	0.00	29.926 
08:45	74.2	74.2	74.2	70	63.8	1	4	248	0.00	29.928 
08:50	74.4	74.4	74.4	69	63.5	2	5	248	0.00	29.928 
08:55	74.6	74.6	74.6	69	63.7	2	4	248	0.00	29.928 
09:00	74.6	74.6	74.6	69	63.7	2	4	248	0.00	29.934 
09:05	74.6	74.6	74.6	70	64.2	1	2	248	0.00	29.934 
09:10	74.7	74.7	74.7	69	63.8	1	4	248	0.00	29.934 
09:15	75.3	75.3	77.0	69	64.4	1	4	248	0.00	29.934 
09:20	75.6	75.6	77.3	69	64.7	2	4	248	0.00	29.934 
09:25	75.8	75.8	77.6	67	64.0	2	6	270	0.00	29.934 
09:30	76.0	76.0	77.8	67	64.2	2	4	248	0.00	29.936 
09:35	76.1	76.1	77.9	67	64.3	2	4	248	0.00	29.936 
09:40	76.3	76.3	78.1	66	64.1	2	4	248	0.00	29.936 
09:45	76.5	76.5	78.3	66	64.3	2	3	270	0.00	29.934 
09:50	76.7	76.7	78.5	66	64.5	1	4	270	0.00	29.934 
09:55	77.0	77.0	78.8	66	64.8	1	2	270	0.00	29.934 
10:00	77.6	77.6	79.4	65	64.9	1	3	270	0.00	29.932 
10:05	77.9	77.9	79.7	65	65.2	2	4	248	0.00	29.932 
10:10	78.6	78.6	80.5	64	65.4	1	4	248	0.00	29.932 
10:15	79.0	79.0	80.8	62	64.8	2	5	270	0.00	29.928 
10:20	79.0	79.0	80.8	61	64.4	2	5	248	0.00	29.928 
10:25	79.0	79.0	80.8	62	64.8	2	5	270	0.00	29.928 
10:30	79.0	79.0	80.8	62	64.8	2	3	248	0.00	29.930 
10:35	79.0	79.0	80.9	63	65.3	2	4	248	0.00	29.930 
10:40	79.2	79.2	81.1	63	65.5	1	3	248	0.00	29.930 
10:45	79.9	79.9	81.8	61	65.2	2	5	270	0.00	29.929 
10:50	80.9	80.9	82.8	59	65.2	3	5	248	0.00	29.929 
10:55	81.2	81.2	83.2	59	65.5	2	5	248	0.00	29.929 
11:00	81.8	81.8	83.6	57	65.0	2	5	248	0.00	29.926 
11:05	82.2	82.2	84.0	56	64.9	3	6	248	0.00	29.926 
11:10	82.6	82.6	84.5	56	65.3	3	6	270	0.00	29.926 
11:15	82.6	82.6	84.5	56	65.3	3	6	270	0.00	29.926 
11:20	83.0	83.0	84.7	54	64.6	2	5	248	0.00	29.926 
11:25	82.8	82.8	84.6	55	65.0	2	5	270	0.00	29.926 
11:30	83.4	83.4	85.4	55	65.5	2	4	248	0.00	29.921 
11:35	84.0	84.0	86.3	55	66.1	2	4	248	0.00	29.921 
11:40	84.5	84.5	86.7	54	66.0	2	4	248	0.00	29.921 
11:45	85.1	85.1	86.9	51	64.9	2	4	248	0.00	29.919 
11:50	85.5	85.5	87.4	51	65.3	2	6	248	0.00	29.919 
11:55	85.5	85.5	87.4	51	65.3	3	6	270	0.00	29.919 
12:00	84.9	84.9	86.6	51	64.7	2	6	270	0.00	29.916 
12:05	84.1	84.1	85.9	53	65.1	2	6	270	0.00	29.916 
12:10	84.1	84.1	85.7	52	64.5	3	6	248	0.00	29.916 
12:15	84.5	84.5	86.3	52	64.9	3	5	270	0.00	29.919 
12:20	84.7	84.7	86.8	53	65.6	2	4	248	0.00	29.919 
12:25	85.3	85.3	86.9	50	64.5	2	4	248	0.00	29.919 
12:30	85.3	85.3	87.4	52	65.6	2	4	315	0.00	29.918 
12:35	84.9	84.9	86.8	52	65.3	2	6	248	0.00	29.918 
12:40	84.5	84.5	86.7	54	66.0	3	6	270	0.00	29.918 
12:45	84.9	84.9	86.6	51	64.7	3	5	248	0.00	29.917 
12:50	85.1	85.1	87.1	52	65.5	3	6	270	0.00	29.917 
12:55	85.1	85.1	86.6	50	64.3	3	5	248	0.00	29.917 
13:00	84.5	84.5	86.0	51	64.4	2	6	248	0.00	29.914 
13:05	84.1	84.1	85.7	52	64.5	1	4	248	0.00	29.914 
13:10	83.8	83.8	85.7	54	65.3	1	2	248	0.00	29.914 
13:15	83.4	83.4	85.2	54	65.0	1	4	270	0.00	29.914 
13:20	83.4	83.4	85.2	54	65.0	1	3	248	0.00	29.914 
13:25	83.2	83.2	84.9	54	64.8	1	3	248	0.00	29.914 
13:30	83.0	83.0	84.9	55	65.1	1	3	248	0.00	29.915 
13:35	83.0	83.0	85.3	57	66.2	1	4	248	0.00	29.915 
13:40	83.2	83.2	85.6	57	66.4	1	2	248	0.00	29.915 
13:45	83.6	83.6	85.9	56	66.2	1	3	248	0.00	29.915 
13:50	83.8	83.8	86.2	56	66.4	1	3	248	0.00	29.915 
13:55	83.8	83.8	86.2	56	66.4	2	4	248	0.00	29.915 
14:00	83.8	83.8	86.2	56	66.4	2	4	248	0.00	29.913 
14:05	83.8	83.8	86.0	55	65.9	1	3	248	0.00	29.913 
14:10	83.8	83.8	86.2	56	66.4	1	3	248	0.00	29.913 
14:15	83.6	83.6	85.9	56	66.2	2	6	270	0.00	29.906 
14:20	83.4	83.4	85.6	56	66.0	1	3	270	0.00	29.906 
14:25	83.4	83.4	85.6	56	66.0	2	4	248	0.00	29.906 
14:30	83.6	83.6	86.1	57	66.7	1	4	248	0.00	29.902 
14:35	83.6	83.6	85.9	56	66.2	2	4	248	0.00	29.902 
14:40	84.0	84.0	86.5	56	66.6	2	4	270	0.00	29.902 
14:45	84.7	84.7	87.3	55	66.7	1	4	270	0.00	29.899 
14:50	86.1	86.1	89.9	56	68.5	1	5	0	0.00	29.899 
14:55	87.0	87.0	90.1	52	67.2	1	4	248	0.00	29.899 
15:00	87.0	87.0	89.7	51	66.6	2	3	248	0.00	29.895 
15:05	87.4	87.4	90.7	52	67.6	1	2	248	0.00	29.895 
15:10	87.8	87.8	91.1	51	67.4	2	7	270	0.00	29.895 
15:15	87.8	87.8	90.7	50	66.8	2	7	112	0.00	29.889 
15:20	87.2	87.2	90.8	53	67.9	2	4	248	0.00	29.889 
15:25	87.8	87.8	90.0	48	65.6	2	5	270	0.00	29.889 
15:30	88.6	88.6	91.3	48	66.4	2	5	270	0.00	29.886 
15:35	88.8	88.8	91.3	47	65.9	2	3	248	0.00	29.886 
15:40	89.0	89.0	91.2	46	65.5	1	3	270	0.00	29.886 
15:45	89.5	89.5	92.1	46	65.9	2	5	270	0.00	29.884 
15:50	89.5	89.5	91.0	43	64.0	2	5	292	0.00	29.884 
15:55	88.6	88.6	90.3	45	64.5	2	6	248	0.00	29.884 
16:00	87.8	87.8	89.7	47	65.0	1	4	270	0.00	29.885 
16:05	87.8	87.8	89.1	45	63.8	2	7	270	0.00	29.885 
16:10	88.0	88.0	89.7	46	64.6	1	4	248	0.00	29.885 
16:15	89.0	89.0	91.6	47	66.1	2	6	248	0.00	29.882 
16:20	89.3	89.3	91.4	45	65.1	2	6	270	0.00	29.882 
16:25	89.3	89.3	91.0	44	64.5	2	4	270	0.00	29.882 
16:30	88.4	88.4	90.3	46	64.9	2	7	270	0.00	29.881 
16:35	88.8	88.8	90.9	46	65.3	2	7	248	0.00	29.881 
16:40	89.3	89.3	90.6	43	63.8	2	5	248	0.00	29.881 
16:45	89.0	89.0	90.2	43	63.6	3	7	270	0.00	29.879 
16:50	88.8	88.8	90.2	44	64.0	3	6	270	0.00	29.879 
16:55	88.6	88.6	90.6	46	65.1	2	5	248	0.00	29.879 
17:00	88.6	88.6	90.6	46	65.1	2	4	248	0.00	29.875 
17:05	87.8	87.8	89.4	46	64.4	3	7	270	0.00	29.875 
17:10	88.0	88.0	89.7	46	64.6	2	5	248	0.00	29.875 
17:15	88.6	88.6	90.6	46	65.1	2	4	270	0.00	29.875 
17:20	88.4	88.4	90.0	45	64.3	2	6	248	0.00	29.875 
17:25	88.0	88.0	89.7	46	64.6	3	6	248	0.00	29.875 
17:30	87.6	87.6	89.1	46	64.2	2	7	270	0.00	29.872 
17:35	87.8	87.8	89.4	46	64.4	2	9	270	0.00	29.872 
17:40	87.8	87.8	89.4	46	64.4	2	9	248	0.00	29.872 
17:45	87.2	87.2	88.2	45	63.2	3	6	248	0.00	29.869 
17:50	86.7	86.7	87.8	46	63.4	2	5	270	0.00	29.869 
17:55	87.4	87.4	88.8	46	64.0	1	4	248	0.00	29.869 
18:00	87.8	87.8	89.4	46	64.4	2	5	248	0.00	29.869 
18:05	87.8	87.8	89.4	46	64.4	2	4	248	0.00	29.869 
18:10	87.8	87.8	88.8	44	63.1	2	6	270	0.00	29.869 
18:15	87.4	87.4	88.2	44	62.8	2	10	270	0.00	29.869 
18:20	87.2	87.2	88.5	46	63.9	2	4	248	0.00	29.869 
18:25	87.0	87.0	88.5	47	64.3	2	4	248	0.00	29.869 
18:30	86.3	86.3	88.6	51	66.0	2	5	248	0.00	29.869 
18:35	84.7	84.7	87.3	55	66.7	3	7	270	0.00	29.869 
18:40	83.0	83.0	85.3	57	66.2	2	5	270	0.00	29.869 
18:45	81.6	81.6	84.0	61	66.8	1	4	270	0.00	29.864 
18:50	80.7	80.7	82.8	61	66.0	2	6	270	0.00	29.864 
18:55	80.3	80.3	82.7	64	67.0	1	5	248	0.00	29.864 
19:00	80.3	80.3	82.4	62	66.1	2	5	270	0.00	29.868 
19:05	79.9	79.9	82.0	63	66.2	2	5	248	0.00	29.868 
19:10	79.6	79.6	81.7	64	66.3	2	6	248	0.00	29.868 
19:15	79.4	79.4	81.6	65	66.6	2	4	248	0.00	29.870 
19:20	79.4	79.4	81.6	65	66.6	3	6	270	0.00	29.870 
19:25	79.0	79.0	81.1	66	66.6	2	9	248	0.00	29.870 
19:30	78.3	78.3	80.2	66	66.0	1	5	248	0.00	29.871 
19:35	78.6	78.6	80.6	65	65.8	2	7	248	0.00	29.871 
19:40	78.8	78.8	80.9	66	66.5	2	5	248	0.00	29.871 
19:45	78.8	78.8	80.9	66	66.5	2	5	270	0.00	29.870 
19:50	78.6	78.6	80.6	65	65.8	2	4	270	0.00	29.870 
19:55	78.3	78.3	80.3	67	66.4	1	4	248	0.00	29.870 
20:00	78.3	78.3	80.2	65	65.5	2	5	248	0.00	29.873 
20:05	78.6	78.6	80.5	64	65.4	2	5	270	0.00	29.873 
20:10	78.8	78.8	80.7	64	65.6	2	4	248	0.00	29.873 
20:15	79.0	79.0	80.9	63	65.3	1	4	270	0.00	29.870 
20:20	79.0	79.0	81.0	64	65.8	1	4	248	0.00	29.870 
20:25	79.0	79.0	80.9	63	65.3	1	4	248	0.00	29.870 
20:30	79.2	79.2	81.1	63	65.5	2	4	248	0.00	29.873 
20:35	79.4	79.4	81.2	61	64.8	2	6	248	0.00	29.873 
20:40	79.6	79.6	81.5	62	65.4	2	5	248	0.00	29.873 
20:45	78.8	78.8	80.7	64	65.6	1	2	248	0.00	29.877 
20:50	79.0	79.0	80.8	62	64.8	2	3	248	0.00	29.877 
20:55	79.0	79.0	80.8	62	64.8	1	3	270	0.00	29.877 
21:00	79.0	79.0	80.9	63	65.3	1	2	270	0.00	29.872 
21:05	78.6	78.6	80.5	64	65.4	0	1	270	0.00	29.872 
21:10	78.5	78.5	80.4	64	65.3	0	2	270	0.00	29.872 
21:15	78.6	78.6	80.5	64	65.4	0	2	270	0.00	29.866 
21:20	78.5	78.5	80.4	64	65.3	0	2	270	0.00	29.866 
21:25	78.1	78.1	80.0	66	65.8	0	1	270	0.00	29.866 
21:30	77.7	77.7	79.6	67	65.8	0	0	---	0.00	29.861 
21:35	77.4	77.4	79.2	67	65.6	0	0	---	0.00	29.861 
21:40	77.2	77.2	79.0	68	65.8	0	1	270	0.00	29.861 
21:45	76.8	76.8	78.6	69	65.8	0	0	---	0.00	29.857 
21:50	76.7	76.7	78.4	69	65.7	0	1	270	0.00	29.857 
21:55	76.7	76.7	78.4	69	65.7	0	1	270	0.00	29.857 
22:00	76.8	76.8	78.6	69	65.8	0	1	270	0.00	29.865 
22:05	76.8	76.8	78.5	70	66.3	0	0	---	0.00	29.865 
22:10	76.5	76.5	78.2	71	66.4	0	1	270	0.00	29.865 
22:15	76.5	76.5	78.2	71	66.4	0	0	---	0.00	29.866 
22:20	76.1	76.1	77.7	72	66.4	0	0	---	0.00	29.866 
22:25	76.1	76.1	77.6	73	66.8	0	0	---	0.00	29.866 
22:30	76.0	76.0	77.5	73	66.7	0	1	270	0.00	29.868 
22:35	76.0	76.0	77.5	73	66.7	0	1	270	0.00	29.868 
22:40	75.8	75.8	77.3	73	66.5	0	1	270	0.00	29.868 
22:45	75.8	75.8	77.3	73	66.5	0	1	270	0.00	29.874 
22:50	76.0	76.0	77.5	73	66.7	0	2	270	0.00	29.874 
22:55	76.3	76.3	77.8	73	67.0	0	1	270	0.00	29.874 
23:00	76.3	76.3	77.9	72	66.6	1	2	270	0.00	29.878 
23:05	76.3	76.3	77.9	71	66.2	0	1	270	0.00	29.878 
23:10	76.3	76.3	77.9	71	66.2	1	3	248	0.00	29.878 
23:15	76.3	76.3	78.0	70	65.8	0	1	248	0.00	29.875 
23:20	76.5	76.5	78.2	70	66.0	0	1	248	0.00	29.875 
23:25	76.5	76.5	78.2	70	66.0	0	2	248	0.00	29.875 
23:30	76.3	76.3	78.0	70	65.8	0	3	248	0.00	29.874 
23:35	76.3	76.3	78.0	70	65.8	1	3	248	0.00	29.874 
23:40	76.3	76.3	78.0	70	65.8	0	2	248	0.00	29.874 
23:45	76.1	76.1	77.7	71	66.0	0	2	248	0.00	29.877 
23:50	76.0	76.0	77.6	71	65.9	0	2	248	0.00	29.877 
23:55	76.0	76.0	77.6	71	65.9	1	4	270	0.00	29.877 

CoCoRaHS
IN-AL-39
A2 Web Hosting
Creative Commons License
GoDaddy
Look for:

loaded 2017-12-10 21:41:40 • last modified 2010-11-18 10:43:29
Privacy PolicyDisclaimer
• wx.awcolley.com is powered by PmWiki v.2002016 •
• all content (unless otherwise noted) © 2017 A W Colley